sensor_id;sensor_type;location;lat;lon;timestamp;temperature;humidity
17442;DHT22;8838;50.144;8.176;2022-12-07T00:01:30;2.20;99.90
17442;DHT22;8838;50.144;8.176;2022-12-07T00:03:59;2.20;99.90
17442;DHT22;8838;50.144;8.176;2022-12-07T00:06:30;2.20;99.90
17442;DHT22;8838;50.144;8.176;2022-12-07T00:08:57;2.30;99.90
17442;DHT22;8838;50.144;8.176;2022-12-07T00:11:26;2.40;99.90
17442;DHT22;8838;50.144;8.176;2022-12-07T00:13:54;2.40;99.90
17442;DHT22;8838;50.144;8.176;2022-12-07T00:16:24;2.30;99.90
17442;DHT22;8838;50.144;8.176;2022-12-07T00:18:51;2.30;99.90
17442;DHT22;8838;50.144;8.176;2022-12-07T00:21:21;2.20;99.90
17442;DHT22;8838;50.144;8.176;2022-12-07T00:23:49;2.30;99.90
17442;DHT22;8838;50.144;8.176;2022-12-07T00:26:18;2.30;99.90
17442;DHT22;8838;50.144;8.176;2022-12-07T00:28:47;2.20;99.90
17442;DHT22;8838;50.144;8.176;2022-12-07T00:31:16;2.20;99.90
17442;DHT22;8838;50.144;8.176;2022-12-07T00:33:43;2.20;99.90
17442;DHT22;8838;50.144;8.176;2022-12-07T00:36:12;2.20;99.90
17442;DHT22;8838;50.144;8.176;2022-12-07T00:38:41;2.20;99.90
17442;DHT22;8838;50.144;8.176;2022-12-07T00:41:12;2.10;99.90
17442;DHT22;8838;50.144;8.176;2022-12-07T00:43:44;2.10;99.90
17442;DHT22;8838;50.144;8.176;2022-12-07T00:46:15;2.10;99.90
17442;DHT22;8838;50.144;8.176;2022-12-07T00:48:45;2.10;99.90
17442;DHT22;8838;50.144;8.176;2022-12-07T00:51:17;2.10;99.90
17442;DHT22;8838;50.144;8.176;2022-12-07T00:53:44;2.20;99.90
17442;DHT22;8838;50.144;8.176;2022-12-07T00:56:12;2.20;99.90
17442;DHT22;8838;50.144;8.176;2022-12-07T00:58:39;2.20;99.90
17442;DHT22;8838;50.144;8.176;2022-12-07T01:01:07;2.20;99.90
17442;DHT22;8838;50.144;8.176;2022-12-07T01:03:36;2.20;99.90
17442;DHT22;8838;50.144;8.176;2022-12-07T01:06:04;2.10;99.90
17442;DHT22;8838;50.144;8.176;2022-12-07T01:08:31;2.00;99.90
17442;DHT22;8838;50.144;8.176;2022-12-07T01:10:59;2.10;99.90
17442;DHT22;8838;50.144;8.176;2022-12-07T01:13:26;2.10;99.90
17442;DHT22;8838;50.144;8.176;2022-12-07T01:15:56;2.20;99.90
17442;DHT22;8838;50.144;8.176;2022-12-07T01:18:24;2.20;99.90
17442;DHT22;8838;50.144;8.176;2022-12-07T01:20:59;2.30;99.90
17442;DHT22;8838;50.144;8.176;2022-12-07T01:23:27;2.30;99.90
17442;DHT22;8838;50.144;8.176;2022-12-07T01:25:55;2.20;99.90
17442;DHT22;8838;50.144;8.176;2022-12-07T01:28:22;2.30;99.90
17442;DHT22;8838;50.144;8.176;2022-12-07T01:30:55;2.30;99.90
17442;DHT22;8838;50.144;8.176;2022-12-07T01:33:23;2.30;99.90
17442;DHT22;8838;50.144;8.176;2022-12-07T01:35:50;2.30;99.90
17442;DHT22;8838;50.144;8.176;2022-12-07T01:38:18;2.30;99.90
17442;DHT22;8838;50.144;8.176;2022-12-07T01:40:45;2.30;99.90
17442;DHT22;8838;50.144;8.176;2022-12-07T01:43:16;2.30;99.90
17442;DHT22;8838;50.144;8.176;2022-12-07T01:45:44;2.30;99.90
17442;DHT22;8838;50.144;8.176;2022-12-07T01:48:14;2.30;99.90
17442;DHT22;8838;50.144;8.176;2022-12-07T01:50:43;2.40;99.90
17442;DHT22;8838;50.144;8.176;2022-12-07T01:53:11;2.30;99.90
17442;DHT22;8838;50.144;8.176;2022-12-07T01:55:43;2.30;99.90
17442;DHT22;8838;50.144;8.176;2022-12-07T01:58:12;2.30;99.90
17442;DHT22;8838;50.144;8.176;2022-12-07T02:00:41;2.30;99.90
17442;DHT22;8838;50.144;8.176;2022-12-07T02:03:11;2.30;99.90
17442;DHT22;8838;50.144;8.176;2022-12-07T02:05:41;2.30;99.90
17442;DHT22;8838;50.144;8.176;2022-12-07T02:08:10;2.40;99.90
17442;DHT22;8838;50.144;8.176;2022-12-07T02:10:40;2.40;99.90
17442;DHT22;8838;50.144;8.176;2022-12-07T02:13:10;2.40;99.90
17442;DHT22;8838;50.144;8.176;2022-12-07T02:15:47;2.40;99.90
17442;DHT22;8838;50.144;8.176;2022-12-07T02:18:22;2.40;99.90
17442;DHT22;8838;50.144;8.176;2022-12-07T02:24:15;2.30;99.90
17442;DHT22;8838;50.144;8.176;2022-12-07T02:27:02;2.40;99.90
17442;DHT22;8838;50.144;8.176;2022-12-07T02:29:35;2.40;99.90
17442;DHT22;8838;50.144;8.176;2022-12-07T02:32:08;2.40;99.90
17442;DHT22;8838;50.144;8.176;2022-12-07T02:34:44;2.40;99.90
17442;DHT22;8838;50.144;8.176;2022-12-07T02:37:19;2.50;99.90
17442;DHT22;8838;50.144;8.176;2022-12-07T02:39:54;2.50;99.90
17442;DHT22;8838;50.144;8.176;2022-12-07T02:42:25;2.50;99.90
17442;DHT22;8838;50.144;8.176;2022-12-07T02:44:56;2.50;99.90
17442;DHT22;8838;50.144;8.176;2022-12-07T02:47:25;2.50;99.90
17442;DHT22;8838;50.144;8.176;2022-12-07T02:49:52;2.50;99.90
17442;DHT22;8838;50.144;8.176;2022-12-07T02:52:20;2.40;99.90
17442;DHT22;8838;50.144;8.176;2022-12-07T02:54:47;2.40;99.90
17442;DHT22;8838;50.144;8.176;2022-12-07T02:57:36;2.40;99.90
17442;DHT22;8838;50.144;8.176;2022-12-07T03:00:11;2.40;99.90
17442;DHT22;8838;50.144;8.176;2022-12-07T03:02:49;2.50;99.90
17442;DHT22;8838;50.144;8.176;2022-12-07T03:05:42;2.40;99.90
17442;DHT22;8838;50.144;8.176;2022-12-07T03:08:15;2.40;99.90
17442;DHT22;8838;50.144;8.176;2022-12-07T03:10:54;2.40;99.90
17442;DHT22;8838;50.144;8.176;2022-12-07T03:13:28;2.40;99.90
17442;DHT22;8838;50.144;8.176;2022-12-07T03:16:01;2.40;99.90
17442;DHT22;8838;50.144;8.176;2022-12-07T03:18:31;2.40;99.90
17442;DHT22;8838;50.144;8.176;2022-12-07T03:21:04;2.50;99.90
17442;DHT22;8838;50.144;8.176;2022-12-07T03:23:32;2.40;99.90
17442;DHT22;8838;50.144;8.176;2022-12-07T03:26:02;2.50;99.90
17442;DHT22;8838;50.144;8.176;2022-12-07T03:28:36;2.50;99.90
17442;DHT22;8838;50.144;8.176;2022-12-07T03:31:12;2.50;99.90
17442;DHT22;8838;50.144;8.176;2022-12-07T03:33:44;2.50;99.90
17442;DHT22;8838;50.144;8.176;2022-12-07T03:36:20;2.50;99.90
17442;DHT22;8838;50.144;8.176;2022-12-07T03:38:53;2.50;99.90
17442;DHT22;8838;50.144;8.176;2022-12-07T03:41:24;2.50;99.90
17442;DHT22;8838;50.144;8.176;2022-12-07T03:43:51;2.50;99.90
17442;DHT22;8838;50.144;8.176;2022-12-07T03:46:31;2.50;99.90
17442;DHT22;8838;50.144;8.176;2022-12-07T03:49:06;2.50;99.90
17442;DHT22;8838;50.144;8.176;2022-12-07T03:51:40;2.60;99.90
17442;DHT22;8838;50.144;8.176;2022-12-07T03:54:13;2.60;99.90
17442;DHT22;8838;50.144;8.176;2022-12-07T03:56:42;2.60;99.90
17442;DHT22;8838;50.144;8.176;2022-12-07T03:59:11;2.60;99.90
17442;DHT22;8838;50.144;8.176;2022-12-07T04:01:41;2.60;99.90
17442;DHT22;8838;50.144;8.176;2022-12-07T04:04:08;2.60;99.90
17442;DHT22;8838;50.144;8.176;2022-12-07T04:06:36;2.60;99.90
17442;DHT22;8838;50.144;8.176;2022-12-07T04:09:03;2.60;99.90
17442;DHT22;8838;50.144;8.176;2022-12-07T04:11:30;2.60;99.90
17442;DHT22;8838;50.144;8.176;2022-12-07T04:13:58;2.70;99.90
17442;DHT22;8838;50.144;8.176;2022-12-07T04:16:44;2.70;99.90
17442;DHT22;8838;50.144;8.176;2022-12-07T04:19:12;2.80;99.90
17442;DHT22;8838;50.144;8.176;2022-12-07T04:21:39;2.80;99.90
17442;DHT22;8838;50.144;8.176;2022-12-07T04:24:07;2.80;99.90
17442;DHT22;8838;50.144;8.176;2022-12-07T04:26:35;2.80;99.90
17442;DHT22;8838;50.144;8.176;2022-12-07T04:29:02;2.80;99.90
17442;DHT22;8838;50.144;8.176;2022-12-07T04:31:29;2.70;99.90
17442;DHT22;8838;50.144;8.176;2022-12-07T04:33:57;2.70;99.90
17442;DHT22;8838;50.144;8.176;2022-12-07T04:36:25;2.70;99.90
17442;DHT22;8838;50.144;8.176;2022-12-07T04:38:53;2.70;99.90
17442;DHT22;8838;50.144;8.176;2022-12-07T04:41:20;2.70;99.90
17442;DHT22;8838;50.144;8.176;2022-12-07T04:43:52;2.60;99.90
17442;DHT22;8838;50.144;8.176;2022-12-07T04:46:19;2.70;99.90
17442;DHT22;8838;50.144;8.176;2022-12-07T04:48:46;2.70;99.90
17442;DHT22;8838;50.144;8.176;2022-12-07T04:51:16;2.80;99.90
17442;DHT22;8838;50.144;8.176;2022-12-07T04:53:45;2.80;99.90
17442;DHT22;8838;50.144;8.176;2022-12-07T04:56:11;2.80;99.90
17442;DHT22;8838;50.144;8.176;2022-12-07T04:58:38;2.80;99.90
17442;DHT22;8838;50.144;8.176;2022-12-07T05:01:06;2.80;99.90
17442;DHT22;8838;50.144;8.176;2022-12-07T05:03:33;2.80;99.90
17442;DHT22;8838;50.144;8.176;2022-12-07T05:06:00;2.80;99.90
17442;DHT22;8838;50.144;8.176;2022-12-07T05:08:28;2.80;99.90
17442;DHT22;8838;50.144;8.176;2022-12-07T05:10:55;2.90;99.90
17442;DHT22;8838;50.144;8.176;2022-12-07T05:13:22;2.80;99.90
17442;DHT22;8838;50.144;8.176;2022-12-07T05:15:49;2.80;99.90
17442;DHT22;8838;50.144;8.176;2022-12-07T05:18:16;2.80;99.90
17442;DHT22;8838;50.144;8.176;2022-12-07T05:20:44;2.90;99.90
17442;DHT22;8838;50.144;8.176;2022-12-07T05:23:11;2.90;99.90
17442;DHT22;8838;50.144;8.176;2022-12-07T05:25:39;2.90;99.90
17442;DHT22;8838;50.144;8.176;2022-12-07T05:28:06;2.90;99.90
17442;DHT22;8838;50.144;8.176;2022-12-07T05:30:33;2.90;99.90
17442;DHT22;8838;50.144;8.176;2022-12-07T05:33:00;2.90;99.90
17442;DHT22;8838;50.144;8.176;2022-12-07T05:35:28;2.90;99.90
17442;DHT22;8838;50.144;8.176;2022-12-07T05:37:56;2.90;99.90
17442;DHT22;8838;50.144;8.176;2022-12-07T05:40:23;3.00;99.90
17442;DHT22;8838;50.144;8.176;2022-12-07T05:42:52;3.00;99.90
17442;DHT22;8838;50.144;8.176;2022-12-07T05:45:18;3.00;99.90
17442;DHT22;8838;50.144;8.176;2022-12-07T05:47:46;3.00;99.90
17442;DHT22;8838;50.144;8.176;2022-12-07T05:50:12;3.00;99.90
17442;DHT22;8838;50.144;8.176;2022-12-07T05:52:39;3.00;99.90
17442;DHT22;8838;50.144;8.176;2022-12-07T05:55:07;3.00;99.90
17442;DHT22;8838;50.144;8.176;2022-12-07T05:57:33;3.00;99.90
17442;DHT22;8838;50.144;8.176;2022-12-07T06:00:02;3.00;99.90
17442;DHT22;8838;50.144;8.176;2022-12-07T06:02:28;3.00;99.90
17442;DHT22;8838;50.144;8.176;2022-12-07T06:04:55;3.00;99.90
17442;DHT22;8838;50.144;8.176;2022-12-07T06:07:24;3.00;99.90
17442;DHT22;8838;50.144;8.176;2022-12-07T06:09:51;3.00;99.90
17442;DHT22;8838;50.144;8.176;2022-12-07T06:12:18;3.00;99.90
17442;DHT22;8838;50.144;8.176;2022-12-07T06:14:59;3.00;99.90
17442;DHT22;8838;50.144;8.176;2022-12-07T06:17:27;3.00;99.90
17442;DHT22;8838;50.144;8.176;2022-12-07T06:19:54;2.90;99.90
17442;DHT22;8838;50.144;8.176;2022-12-07T06:22:21;3.00;99.90
17442;DHT22;8838;50.144;8.176;2022-12-07T06:24:49;3.00;99.90
17442;DHT22;8838;50.144;8.176;2022-12-07T06:27:16;3.00;99.90
17442;DHT22;8838;50.144;8.176;2022-12-07T06:29:43;2.90;99.90
17442;DHT22;8838;50.144;8.176;2022-12-07T06:32:10;3.00;99.90
17442;DHT22;8838;50.144;8.176;2022-12-07T06:34:39;3.00;99.90
17442;DHT22;8838;50.144;8.176;2022-12-07T06:37:06;2.90;99.90
17442;DHT22;8838;50.144;8.176;2022-12-07T06:39:33;2.90;99.90
17442;DHT22;8838;50.144;8.176;2022-12-07T06:41:59;2.90;99.90
17442;DHT22;8838;50.144;8.176;2022-12-07T06:44:27;2.90;99.90
17442;DHT22;8838;50.144;8.176;2022-12-07T06:46:55;2.90;99.90
17442;DHT22;8838;50.144;8.176;2022-12-07T06:49:22;2.90;99.90
17442;DHT22;8838;50.144;8.176;2022-12-07T06:51:50;3.00;99.90
17442;DHT22;8838;50.144;8.176;2022-12-07T06:54:17;3.00;99.90
17442;DHT22;8838;50.144;8.176;2022-12-07T06:56:44;3.00;99.90
17442;DHT22;8838;50.144;8.176;2022-12-07T06:59:10;3.10;99.90
17442;DHT22;8838;50.144;8.176;2022-12-07T07:01:38;3.20;99.90
17442;DHT22;8838;50.144;8.176;2022-12-07T07:04:05;3.30;99.90
17442;DHT22;8838;50.144;8.176;2022-12-07T07:06:32;3.30;99.90
17442;DHT22;8838;50.144;8.176;2022-12-07T07:09:01;3.40;99.90
17442;DHT22;8838;50.144;8.176;2022-12-07T07:11:27;3.40;99.90
17442;DHT22;8838;50.144;8.176;2022-12-07T07:13:54;3.30;99.90
17442;DHT22;8838;50.144;8.176;2022-12-07T07:16:27;3.30;99.90
17442;DHT22;8838;50.144;8.176;2022-12-07T07:18:54;3.20;99.90
17442;DHT22;8838;50.144;8.176;2022-12-07T07:21:21;3.10;99.90
17442;DHT22;8838;50.144;8.176;2022-12-07T07:23:48;3.00;99.90
17442;DHT22;8838;50.144;8.176;2022-12-07T07:26:16;3.00;99.90
17442;DHT22;8838;50.144;8.176;2022-12-07T07:28:43;3.00;99.90
17442;DHT22;8838;50.144;8.176;2022-12-07T07:31:10;3.00;99.90
17442;DHT22;8838;50.144;8.176;2022-12-07T07:33:37;3.00;99.90
17442;DHT22;8838;50.144;8.176;2022-12-07T07:36:05;3.00;99.90
17442;DHT22;8838;50.144;8.176;2022-12-07T07:38:32;3.10;99.90
17442;DHT22;8838;50.144;8.176;2022-12-07T07:40:59;3.10;99.90
17442;DHT22;8838;50.144;8.176;2022-12-07T07:43:27;3.10;99.90
17442;DHT22;8838;50.144;8.176;2022-12-07T07:45:53;3.10;99.90
17442;DHT22;8838;50.144;8.176;2022-12-07T07:48:20;3.00;99.90
17442;DHT22;8838;50.144;8.176;2022-12-07T07:50:48;3.10;99.90
17442;DHT22;8838;50.144;8.176;2022-12-07T07:53:15;3.10;99.90
17442;DHT22;8838;50.144;8.176;2022-12-07T07:55:41;3.10;99.90
17442;DHT22;8838;50.144;8.176;2022-12-07T07:58:08;3.10;99.90
17442;DHT22;8838;50.144;8.176;2022-12-07T08:00:36;3.10;99.90
17442;DHT22;8838;50.144;8.176;2022-12-07T08:03:03;3.10;99.90
17442;DHT22;8838;50.144;8.176;2022-12-07T08:05:30;3.10;99.90
17442;DHT22;8838;50.144;8.176;2022-12-07T08:07:57;3.10;99.90
17442;DHT22;8838;50.144;8.176;2022-12-07T08:10:24;3.10;99.90
17442;DHT22;8838;50.144;8.176;2022-12-07T08:12:51;3.10;99.90
17442;DHT22;8838;50.144;8.176;2022-12-07T08:15:38;3.10;99.90
17442;DHT22;8838;50.144;8.176;2022-12-07T08:18:05;3.20;99.90
17442;DHT22;8838;50.144;8.176;2022-12-07T08:20:34;3.20;99.90
17442;DHT22;8838;50.144;8.176;2022-12-07T08:23:01;3.10;99.90
17442;DHT22;8838;50.144;8.176;2022-12-07T08:25:28;3.10;99.90
17442;DHT22;8838;50.144;8.176;2022-12-07T08:27:55;3.10;99.90
17442;DHT22;8838;50.144;8.176;2022-12-07T08:30:22;3.00;99.90
17442;DHT22;8838;50.144;8.176;2022-12-07T08:32:50;3.10;99.90
17442;DHT22;8838;50.144;8.176;2022-12-07T08:35:17;3.10;99.90
17442;DHT22;8838;50.144;8.176;2022-12-07T08:37:44;3.10;99.90
17442;DHT22;8838;50.144;8.176;2022-12-07T08:40:12;3.20;99.90
17442;DHT22;8838;50.144;8.176;2022-12-07T08:42:40;3.20;99.90
17442;DHT22;8838;50.144;8.176;2022-12-07T08:45:09;3.20;99.90
17442;DHT22;8838;50.144;8.176;2022-12-07T08:47:38;3.20;99.90
17442;DHT22;8838;50.144;8.176;2022-12-07T08:50:09;3.20;99.90
17442;DHT22;8838;50.144;8.176;2022-12-07T08:52:38;3.30;99.90
17442;DHT22;8838;50.144;8.176;2022-12-07T08:55:08;3.30;99.90
17442;DHT22;8838;50.144;8.176;2022-12-07T08:57:36;3.30;99.90
17442;DHT22;8838;50.144;8.176;2022-12-07T09:00:04;3.30;99.90
17442;DHT22;8838;50.144;8.176;2022-12-07T09:02:32;3.30;99.90
17442;DHT22;8838;50.144;8.176;2022-12-07T09:04:59;3.40;99.90
17442;DHT22;8838;50.144;8.176;2022-12-07T09:07:27;3.50;99.90
17442;DHT22;8838;50.144;8.176;2022-12-07T09:09:54;3.60;99.90
17442;DHT22;8838;50.144;8.176;2022-12-07T09:12:21;3.70;99.90
17442;DHT22;8838;50.144;8.176;2022-12-07T09:14:50;3.80;99.90
17442;DHT22;8838;50.144;8.176;2022-12-07T09:17:17;3.70;99.90
17442;DHT22;8838;50.144;8.176;2022-12-07T09:19:44;3.70;99.90
17442;DHT22;8838;50.144;8.176;2022-12-07T09:22:11;3.70;99.90
17442;DHT22;8838;50.144;8.176;2022-12-07T09:24:39;3.70;99.90
17442;DHT22;8838;50.144;8.176;2022-12-07T09:27:06;3.70;99.90
17442;DHT22;8838;50.144;8.176;2022-12-07T09:29:33;3.60;99.90
17442;DHT22;8838;50.144;8.176;2022-12-07T09:32:00;3.60;99.90
17442;DHT22;8838;50.144;8.176;2022-12-07T09:34:30;3.60;99.90
17442;DHT22;8838;50.144;8.176;2022-12-07T09:36:57;3.60;99.90
17442;DHT22;8838;50.144;8.176;2022-12-07T09:39:24;3.60;99.90
17442;DHT22;8838;50.144;8.176;2022-12-07T09:41:53;3.60;99.90
17442;DHT22;8838;50.144;8.176;2022-12-07T09:44:23;3.50;99.90
17442;DHT22;8838;50.144;8.176;2022-12-07T09:46:51;3.60;99.90
17442;DHT22;8838;50.144;8.176;2022-12-07T09:49:20;3.60;99.90
17442;DHT22;8838;50.144;8.176;2022-12-07T09:51:47;3.60;99.90
17442;DHT22;8838;50.144;8.176;2022-12-07T09:54:16;3.70;99.90
17442;DHT22;8838;50.144;8.176;2022-12-07T09:56:43;3.70;99.90
17442;DHT22;8838;50.144;8.176;2022-12-07T09:59:17;3.80;99.90
17442;DHT22;8838;50.144;8.176;2022-12-07T10:01:47;3.90;99.90
17442;DHT22;8838;50.144;8.176;2022-12-07T10:04:17;4.00;99.90
17442;DHT22;8838;50.144;8.176;2022-12-07T10:06:45;4.00;99.90
17442;DHT22;8838;50.144;8.176;2022-12-07T10:09:14;4.00;99.90
17442;DHT22;8838;50.144;8.176;2022-12-07T10:12:05;4.10;99.90
17442;DHT22;8838;50.144;8.176;2022-12-07T10:14:37;4.20;99.90
17442;DHT22;8838;50.144;8.176;2022-12-07T10:17:30;4.40;99.90
17442;DHT22;8838;50.144;8.176;2022-12-07T10:20:13;4.60;99.90
17442;DHT22;8838;50.144;8.176;2022-12-07T10:22:54;4.90;99.90
17442;DHT22;8838;50.144;8.176;2022-12-07T10:25:23;5.10;99.90
17442;DHT22;8838;50.144;8.176;2022-12-07T10:27:58;5.20;99.90
17442;DHT22;8838;50.144;8.176;2022-12-07T10:30:26;5.30;99.90
17442;DHT22;8838;50.144;8.176;2022-12-07T10:32:53;5.30;99.90
17442;DHT22;8838;50.144;8.176;2022-12-07T10:35:23;5.20;99.90
17442;DHT22;8838;50.144;8.176;2022-12-07T10:37:51;5.10;99.90
17442;DHT22;8838;50.144;8.176;2022-12-07T10:40:26;5.10;99.90
17442;DHT22;8838;50.144;8.176;2022-12-07T10:43:05;5.00;99.90
17442;DHT22;8838;50.144;8.176;2022-12-07T10:45:35;4.90;99.90
17442;DHT22;8838;50.144;8.176;2022-12-07T10:48:07;4.70;99.90
17442;DHT22;8838;50.144;8.176;2022-12-07T10:50:47;4.70;99.90
17442;DHT22;8838;50.144;8.176;2022-12-07T10:53:28;4.60;99.90
17442;DHT22;8838;50.144;8.176;2022-12-07T10:56:13;4.60;99.90
17442;DHT22;8838;50.144;8.176;2022-12-07T10:58:55;4.70;99.90
17442;DHT22;8838;50.144;8.176;2022-12-07T11:01:31;4.90;99.90
17442;DHT22;8838;50.144;8.176;2022-12-07T11:04:19;4.90;99.90
17442;DHT22;8838;50.144;8.176;2022-12-07T11:06:54;4.80;99.90
17442;DHT22;8838;50.144;8.176;2022-12-07T11:10:02;4.80;99.90
17442;DHT22;8838;50.144;8.176;2022-12-07T11:12:45;4.80;99.90
17442;DHT22;8838;50.144;8.176;2022-12-07T11:15:19;4.80;99.90
17442;DHT22;8838;50.144;8.176;2022-12-07T11:17:56;4.80;99.90
17442;DHT22;8838;50.144;8.176;2022-12-07T11:20:39;4.80;99.90
17442;DHT22;8838;50.144;8.176;2022-12-07T11:23:16;4.70;99.90
17442;DHT22;8838;50.144;8.176;2022-12-07T11:25:53;4.60;99.90
17442;DHT22;8838;50.144;8.176;2022-12-07T11:28:30;4.60;99.90
17442;DHT22;8838;50.144;8.176;2022-12-07T11:31:11;4.60;99.90
17442;DHT22;8838;50.144;8.176;2022-12-07T11:33:44;4.70;99.90
17442;DHT22;8838;50.144;8.176;2022-12-07T11:36:31;4.70;99.90
17442;DHT22;8838;50.144;8.176;2022-12-07T11:39:02;4.70;99.90
17442;DHT22;8838;50.144;8.176;2022-12-07T11:41:35;4.60;99.90
17442;DHT22;8838;50.144;8.176;2022-12-07T11:44:06;4.60;99.90
17442;DHT22;8838;50.144;8.176;2022-12-07T11:46:43;4.50;99.90
17442;DHT22;8838;50.144;8.176;2022-12-07T11:49:21;4.50;99.90
17442;DHT22;8838;50.144;8.176;2022-12-07T11:51:53;4.60;99.90
17442;DHT22;8838;50.144;8.176;2022-12-07T11:54:24;4.70;99.90
17442;DHT22;8838;50.144;8.176;2022-12-07T11:56:54;4.80;99.90
17442;DHT22;8838;50.144;8.176;2022-12-07T11:59:27;4.80;99.90
17442;DHT22;8838;50.144;8.176;2022-12-07T12:01:59;4.90;99.90
17442;DHT22;8838;50.144;8.176;2022-12-07T12:04:43;4.90;99.90
17442;DHT22;8838;50.144;8.176;2022-12-07T12:07:17;4.90;99.90
17442;DHT22;8838;50.144;8.176;2022-12-07T12:09:50;4.90;99.90
17442;DHT22;8838;50.144;8.176;2022-12-07T12:12:45;4.90;99.90
17442;DHT22;8838;50.144;8.176;2022-12-07T12:15:22;4.90;99.90
17442;DHT22;8838;50.144;8.176;2022-12-07T12:18:05;4.80;99.90
17442;DHT22;8838;50.144;8.176;2022-12-07T12:20:41;4.90;99.90
17442;DHT22;8838;50.144;8.176;2022-12-07T12:23:12;4.90;99.90
17442;DHT22;8838;50.144;8.176;2022-12-07T12:25:43;4.80;99.90
17442;DHT22;8838;50.144;8.176;2022-12-07T12:28:25;4.80;99.90
17442;DHT22;8838;50.144;8.176;2022-12-07T12:31:09;4.80;99.90
17442;DHT22;8838;50.144;8.176;2022-12-07T12:33:38;4.70;99.90
17442;DHT22;8838;50.144;8.176;2022-12-07T12:36:28;4.80;99.90
17442;DHT22;8838;50.144;8.176;2022-12-07T12:39:12;4.80;99.90
17442;DHT22;8838;50.144;8.176;2022-12-07T12:41:57;4.80;99.90
17442;DHT22;8838;50.144;8.176;2022-12-07T12:47:42;4.90;99.90
17442;DHT22;8838;50.144;8.176;2022-12-07T12:50:18;4.80;99.90
17442;DHT22;8838;50.144;8.176;2022-12-07T12:52:50;4.70;99.90
17442;DHT22;8838;50.144;8.176;2022-12-07T12:58:46;4.50;99.90
17442;DHT22;8838;50.144;8.176;2022-12-07T13:01:44;4.50;99.90
17442;DHT22;8838;50.144;8.176;2022-12-07T13:07:12;4.40;99.90
17442;DHT22;8838;50.144;8.176;2022-12-07T13:09:44;4.50;99.90
17442;DHT22;8838;50.144;8.176;2022-12-07T13:12:14;4.50;99.90
17442;DHT22;8838;50.144;8.176;2022-12-07T13:14:58;4.50;99.90
17442;DHT22;8838;50.144;8.176;2022-12-07T13:18:03;4.60;99.90
17442;DHT22;8838;50.144;8.176;2022-12-07T13:20:44;4.60;99.90
17442;DHT22;8838;50.144;8.176;2022-12-07T13:23:12;4.70;99.90
17442;DHT22;8838;50.144;8.176;2022-12-07T13:25:49;4.60;99.90
17442;DHT22;8838;50.144;8.176;2022-12-07T13:28:20;4.40;99.90
17442;DHT22;8838;50.144;8.176;2022-12-07T13:31:04;4.20;99.90
17442;DHT22;8838;50.144;8.176;2022-12-07T13:33:36;4.00;99.90
17442;DHT22;8838;50.144;8.176;2022-12-07T13:36:03;4.00;99.90
17442;DHT22;8838;50.144;8.176;2022-12-07T13:38:32;3.90;99.90
17442;DHT22;8838;50.144;8.176;2022-12-07T13:41:13;3.80;99.90
17442;DHT22;8838;50.144;8.176;2022-12-07T13:43:51;3.70;99.90
17442;DHT22;8838;50.144;8.176;2022-12-07T13:46:35;3.60;99.90
17442;DHT22;8838;50.144;8.176;2022-12-07T13:49:23;3.60;99.90
17442;DHT22;8838;50.144;8.176;2022-12-07T13:51:51;3.70;99.90
17442;DHT22;8838;50.144;8.176;2022-12-07T13:54:20;3.80;99.90
17442;DHT22;8838;50.144;8.176;2022-12-07T13:56:50;3.80;99.90
17442;DHT22;8838;50.144;8.176;2022-12-07T13:59:21;3.90;99.90
17442;DHT22;8838;50.144;8.176;2022-12-07T14:01:50;3.80;99.90
17442;DHT22;8838;50.144;8.176;2022-12-07T14:04:19;3.90;99.90
17442;DHT22;8838;50.144;8.176;2022-12-07T14:06:55;3.90;99.90
17442;DHT22;8838;50.144;8.176;2022-12-07T14:09:24;3.90;99.90
17442;DHT22;8838;50.144;8.176;2022-12-07T14:11:55;3.80;99.90
17442;DHT22;8838;50.144;8.176;2022-12-07T14:14:25;3.80;99.90
17442;DHT22;8838;50.144;8.176;2022-12-07T14:16:59;3.80;99.90
17442;DHT22;8838;50.144;8.176;2022-12-07T14:19:42;3.80;99.90
17442;DHT22;8838;50.144;8.176;2022-12-07T14:22:28;3.80;99.90
17442;DHT22;8838;50.144;8.176;2022-12-07T14:25:00;3.80;99.90
17442;DHT22;8838;50.144;8.176;2022-12-07T14:27:31;3.90;99.90
17442;DHT22;8838;50.144;8.176;2022-12-07T14:30:00;3.80;99.90
17442;DHT22;8838;50.144;8.176;2022-12-07T14:32:29;3.80;99.90
17442;DHT22;8838;50.144;8.176;2022-12-07T14:34:59;3.80;99.90
17442;DHT22;8838;50.144;8.176;2022-12-07T14:37:28;3.70;99.90
17442;DHT22;8838;50.144;8.176;2022-12-07T14:39:55;3.70;99.90
17442;DHT22;8838;50.144;8.176;2022-12-07T14:42:26;3.80;99.90
17442;DHT22;8838;50.144;8.176;2022-12-07T14:44:55;3.80;99.90
17442;DHT22;8838;50.144;8.176;2022-12-07T14:47:22;3.80;99.90
17442;DHT22;8838;50.144;8.176;2022-12-07T14:49:49;3.70;99.90
17442;DHT22;8838;50.144;8.176;2022-12-07T14:52:18;3.70;99.90
17442;DHT22;8838;50.144;8.176;2022-12-07T14:54:46;3.60;99.90
17442;DHT22;8838;50.144;8.176;2022-12-07T14:57:13;3.70;99.90
17442;DHT22;8838;50.144;8.176;2022-12-07T14:59:40;3.60;99.90
17442;DHT22;8838;50.144;8.176;2022-12-07T15:02:12;3.60;99.90
17442;DHT22;8838;50.144;8.176;2022-12-07T15:04:39;3.60;99.90
17442;DHT22;8838;50.144;8.176;2022-12-07T15:07:12;3.60;99.90
17442;DHT22;8838;50.144;8.176;2022-12-07T15:09:41;3.60;99.90
17442;DHT22;8838;50.144;8.176;2022-12-07T15:12:08;3.60;99.90
17442;DHT22;8838;50.144;8.176;2022-12-07T15:14:35;3.50;99.90
17442;DHT22;8838;50.144;8.176;2022-12-07T15:17:02;3.50;99.90
17442;DHT22;8838;50.144;8.176;2022-12-07T15:19:31;3.50;99.90
17442;DHT22;8838;50.144;8.176;2022-12-07T15:22:00;3.40;99.90
17442;DHT22;8838;50.144;8.176;2022-12-07T15:24:27;3.50;99.90
17442;DHT22;8838;50.144;8.176;2022-12-07T15:26:54;3.40;99.90
17442;DHT22;8838;50.144;8.176;2022-12-07T15:29:21;3.40;99.90
17442;DHT22;8838;50.144;8.176;2022-12-07T15:31:49;3.30;99.90
17442;DHT22;8838;50.144;8.176;2022-12-07T15:34:18;3.30;99.90
17442;DHT22;8838;50.144;8.176;2022-12-07T15:36:49;3.30;99.90
17442;DHT22;8838;50.144;8.176;2022-12-07T15:39:16;3.30;99.90
17442;DHT22;8838;50.144;8.176;2022-12-07T15:41:43;3.30;99.90
17442;DHT22;8838;50.144;8.176;2022-12-07T15:44:11;3.30;99.90
17442;DHT22;8838;50.144;8.176;2022-12-07T15:46:56;3.30;99.90
17442;DHT22;8838;50.144;8.176;2022-12-07T15:49:23;3.30;99.90
17442;DHT22;8838;50.144;8.176;2022-12-07T15:51:51;3.30;99.90
17442;DHT22;8838;50.144;8.176;2022-12-07T15:54:20;3.20;99.90
17442;DHT22;8838;50.144;8.176;2022-12-07T15:56:47;3.10;99.90
17442;DHT22;8838;50.144;8.176;2022-12-07T15:59:14;3.10;99.90
17442;DHT22;8838;50.144;8.176;2022-12-07T16:01:41;3.00;99.90
17442;DHT22;8838;50.144;8.176;2022-12-07T16:04:08;2.90;99.90
17442;DHT22;8838;50.144;8.176;2022-12-07T16:06:35;2.80;99.90
17442;DHT22;8838;50.144;8.176;2022-12-07T16:09:03;2.70;99.90
17442;DHT22;8838;50.144;8.176;2022-12-07T16:11:30;2.60;99.90
17442;DHT22;8838;50.144;8.176;2022-12-07T16:13:58;2.60;99.90
17442;DHT22;8838;50.144;8.176;2022-12-07T16:16:25;2.50;99.90
17442;DHT22;8838;50.144;8.176;2022-12-07T16:18:52;2.40;99.90
17442;DHT22;8838;50.144;8.176;2022-12-07T16:21:20;2.30;99.90
17442;DHT22;8838;50.144;8.176;2022-12-07T16:23:47;2.30;99.90
17442;DHT22;8838;50.144;8.176;2022-12-07T16:26:18;2.20;99.90
17442;DHT22;8838;50.144;8.176;2022-12-07T16:28:47;2.20;99.90
17442;DHT22;8838;50.144;8.176;2022-12-07T16:31:17;2.20;99.90
17442;DHT22;8838;50.144;8.176;2022-12-07T16:33:45;2.30;99.90
17442;DHT22;8838;50.144;8.176;2022-12-07T16:36:13;2.40;99.90
17442;DHT22;8838;50.144;8.176;2022-12-07T16:38:42;2.50;99.90